sensor_id;sensor_type;location;lat;lon;timestamp;temperature;humidity
44817;DHT22;30529;53.570;9.964;2022-10-17T00:01:48;13.50;99.90
44817;DHT22;30529;53.570;9.964;2022-10-17T00:04:17;13.50;99.90
44817;DHT22;30529;53.570;9.964;2022-10-17T00:06:44;13.50;99.90
44817;DHT22;30529;53.570;9.964;2022-10-17T00:09:10;13.50;99.90
44817;DHT22;30529;53.570;9.964;2022-10-17T00:11:39;13.50;99.90
44817;DHT22;30529;53.570;9.964;2022-10-17T00:14:08;13.60;99.90
44817;DHT22;30529;53.570;9.964;2022-10-17T00:16:35;13.50;99.90
44817;DHT22;30529;53.570;9.964;2022-10-17T00:19:18;13.60;99.90
44817;DHT22;30529;53.570;9.964;2022-10-17T00:21:52;13.60;99.90
44817;DHT22;30529;53.570;9.964;2022-10-17T00:24:32;13.70;99.90
44817;DHT22;30529;53.570;9.964;2022-10-17T00:27:04;13.70;99.90
44817;DHT22;30529;53.570;9.964;2022-10-17T00:29:36;13.70;99.90
44817;DHT22;30529;53.570;9.964;2022-10-17T00:32:12;13.70;99.90
44817;DHT22;30529;53.570;9.964;2022-10-17T00:34:38;13.70;99.90
44817;DHT22;30529;53.570;9.964;2022-10-17T00:37:19;13.70;99.90
44817;DHT22;30529;53.570;9.964;2022-10-17T00:39:52;13.60;99.90
44817;DHT22;30529;53.570;9.964;2022-10-17T00:42:19;13.60;99.90
44817;DHT22;30529;53.570;9.964;2022-10-17T00:47:24;13.60;99.90
44817;DHT22;30529;53.570;9.964;2022-10-17T00:50:00;13.60;99.90
44817;DHT22;30529;53.570;9.964;2022-10-17T00:52:33;13.60;99.90
44817;DHT22;30529;53.570;9.964;2022-10-17T00:55:13;13.60;99.90
44817;DHT22;30529;53.570;9.964;2022-10-17T00:57:44;13.60;99.90
44817;DHT22;30529;53.570;9.964;2022-10-17T01:00:15;13.60;99.90
44817;DHT22;30529;53.570;9.964;2022-10-17T01:02:42;13.70;99.90
44817;DHT22;30529;53.570;9.964;2022-10-17T01:05:09;13.70;99.90
44817;DHT22;30529;53.570;9.964;2022-10-17T01:07:42;13.70;99.90
44817;DHT22;30529;53.570;9.964;2022-10-17T01:10:18;13.80;99.90
44817;DHT22;30529;53.570;9.964;2022-10-17T01:13:13;13.80;99.90
44817;DHT22;30529;53.570;9.964;2022-10-17T01:16:10;13.80;99.90
44817;DHT22;30529;53.570;9.964;2022-10-17T01:30:03;13.80;99.90
44817;DHT22;30529;53.570;9.964;2022-10-17T01:35:12;13.80;99.90
44817;DHT22;30529;53.570;9.964;2022-10-17T01:40:54;13.80;99.90
44817;DHT22;30529;53.570;9.964;2022-10-17T01:43:34;13.70;99.90
44817;DHT22;30529;53.570;9.964;2022-10-17T01:49:02;13.70;99.90
44817;DHT22;30529;53.570;9.964;2022-10-17T01:51:40;13.70;99.90
44817;DHT22;30529;53.570;9.964;2022-10-17T01:54:35;13.70;99.90
44817;DHT22;30529;53.570;9.964;2022-10-17T01:57:10;13.70;99.90
44817;DHT22;30529;53.570;9.964;2022-10-17T01:59:40;13.70;99.90
44817;DHT22;30529;53.570;9.964;2022-10-17T02:02:08;13.70;99.90
44817;DHT22;30529;53.570;9.964;2022-10-17T02:04:35;13.80;99.90
44817;DHT22;30529;53.570;9.964;2022-10-17T02:07:06;13.80;99.90
44817;DHT22;30529;53.570;9.964;2022-10-17T02:09:32;13.80;99.90
44817;DHT22;30529;53.570;9.964;2022-10-17T02:15:32;13.80;99.90
44817;DHT22;30529;53.570;9.964;2022-10-17T02:23:08;13.80;99.90
44817;DHT22;30529;53.570;9.964;2022-10-17T02:25:41;13.80;99.90
44817;DHT22;30529;53.570;9.964;2022-10-17T02:28:20;13.80;99.90
44817;DHT22;30529;53.570;9.964;2022-10-17T02:30:59;13.80;99.90
44817;DHT22;30529;53.570;9.964;2022-10-17T02:33:49;13.80;99.90
44817;DHT22;30529;53.570;9.964;2022-10-17T02:36:21;13.80;99.90
44817;DHT22;30529;53.570;9.964;2022-10-17T02:38:50;13.80;99.90
44817;DHT22;30529;53.570;9.964;2022-10-17T02:41:18;13.80;99.90
44817;DHT22;30529;53.570;9.964;2022-10-17T02:43:46;13.80;99.90
44817;DHT22;30529;53.570;9.964;2022-10-17T02:46:17;13.80;99.90
44817;DHT22;30529;53.570;9.964;2022-10-17T02:49:07;13.80;99.90
44817;DHT22;30529;53.570;9.964;2022-10-17T02:51:56;13.80;99.90
44817;DHT22;30529;53.570;9.964;2022-10-17T02:59:44;13.80;99.90
44817;DHT22;30529;53.570;9.964;2022-10-17T03:02:13;13.80;99.90
44817;DHT22;30529;53.570;9.964;2022-10-17T03:04:44;13.80;99.90
44817;DHT22;30529;53.570;9.964;2022-10-17T03:07:10;13.80;99.90
44817;DHT22;30529;53.570;9.964;2022-10-17T03:09:36;13.80;99.90
44817;DHT22;30529;53.570;9.964;2022-10-17T03:12:03;13.80;99.90
44817;DHT22;30529;53.570;9.964;2022-10-17T03:14:32;13.80;99.90
44817;DHT22;30529;53.570;9.964;2022-10-17T03:16:58;13.80;99.90
44817;DHT22;30529;53.570;9.964;2022-10-17T03:19:25;13.80;99.90
44817;DHT22;30529;53.570;9.964;2022-10-17T03:21:51;13.80;99.90
44817;DHT22;30529;53.570;9.964;2022-10-17T03:24:17;13.80;99.90
44817;DHT22;30529;53.570;9.964;2022-10-17T03:26:43;13.80;99.90
44817;DHT22;30529;53.570;9.964;2022-10-17T03:29:09;13.70;99.90
44817;DHT22;30529;53.570;9.964;2022-10-17T03:31:35;13.70;99.90
44817;DHT22;30529;53.570;9.964;2022-10-17T03:34:02;13.60;99.90
44817;DHT22;30529;53.570;9.964;2022-10-17T03:36:28;13.60;99.90
44817;DHT22;30529;53.570;9.964;2022-10-17T03:38:54;13.60;99.90
44817;DHT22;30529;53.570;9.964;2022-10-17T03:41:21;13.50;99.90
44817;DHT22;30529;53.570;9.964;2022-10-17T03:43:47;13.50;99.90
44817;DHT22;30529;53.570;9.964;2022-10-17T03:46:13;13.50;99.90
44817;DHT22;30529;53.570;9.964;2022-10-17T03:48:39;13.50;99.90
44817;DHT22;30529;53.570;9.964;2022-10-17T03:51:07;13.50;99.90
44817;DHT22;30529;53.570;9.964;2022-10-17T03:53:34;13.50;99.90
44817;DHT22;30529;53.570;9.964;2022-10-17T03:56:17;13.50;99.90
44817;DHT22;30529;53.570;9.964;2022-10-17T03:58:46;13.50;99.90
44817;DHT22;30529;53.570;9.964;2022-10-17T04:01:15;13.40;99.90
44817;DHT22;30529;53.570;9.964;2022-10-17T04:03:42;13.50;99.90
44817;DHT22;30529;53.570;9.964;2022-10-17T04:06:11;13.50;99.90
44817;DHT22;30529;53.570;9.964;2022-10-17T04:08:38;13.50;99.90
44817;DHT22;30529;53.570;9.964;2022-10-17T04:11:06;13.50;99.90
44817;DHT22;30529;53.570;9.964;2022-10-17T04:13:33;13.50;99.90
44817;DHT22;30529;53.570;9.964;2022-10-17T04:16:02;13.50;99.90
44817;DHT22;30529;53.570;9.964;2022-10-17T04:18:28;13.50;99.90
44817;DHT22;30529;53.570;9.964;2022-10-17T04:20:54;13.50;99.90
44817;DHT22;30529;53.570;9.964;2022-10-17T04:23:21;13.50;99.90
44817;DHT22;30529;53.570;9.964;2022-10-17T04:25:47;13.50;99.90
44817;DHT22;30529;53.570;9.964;2022-10-17T04:28:14;13.50;99.90
44817;DHT22;30529;53.570;9.964;2022-10-17T04:31:19;13.50;99.90
44817;DHT22;30529;53.570;9.964;2022-10-17T04:33:49;13.50;99.90
44817;DHT22;30529;53.570;9.964;2022-10-17T04:36:17;13.50;99.90
44817;DHT22;30529;53.570;9.964;2022-10-17T04:38:44;13.50;99.90
44817;DHT22;30529;53.570;9.964;2022-10-17T04:41:14;13.50;99.90
44817;DHT22;30529;53.570;9.964;2022-10-17T04:43:41;13.50;99.90
44817;DHT22;30529;53.570;9.964;2022-10-17T04:46:11;13.50;99.90
44817;DHT22;30529;53.570;9.964;2022-10-17T04:48:39;13.40;99.90
44817;DHT22;30529;53.570;9.964;2022-10-17T04:51:08;13.50;99.90
44817;DHT22;30529;53.570;9.964;2022-10-17T04:53:36;13.50;99.90
44817;DHT22;30529;53.570;9.964;2022-10-17T04:56:08;13.40;99.90
44817;DHT22;30529;53.570;9.964;2022-10-17T04:58:35;13.40;99.90
44817;DHT22;30529;53.570;9.964;2022-10-17T05:01:06;13.40;99.90
44817;DHT22;30529;53.570;9.964;2022-10-17T05:03:34;13.40;99.90
44817;DHT22;30529;53.570;9.964;2022-10-17T05:06:08;13.40;99.90
44817;DHT22;30529;53.570;9.964;2022-10-17T05:08:35;13.40;99.90
44817;DHT22;30529;53.570;9.964;2022-10-17T05:11:01;13.30;99.90
44817;DHT22;30529;53.570;9.964;2022-10-17T05:13:28;13.30;99.90
44817;DHT22;30529;53.570;9.964;2022-10-17T05:15:58;13.30;99.90
44817;DHT22;30529;53.570;9.964;2022-10-17T05:18:25;13.30;99.90
44817;DHT22;30529;53.570;9.964;2022-10-17T05:20:51;13.20;99.90
44817;DHT22;30529;53.570;9.964;2022-10-17T05:23:20;13.20;99.90
44817;DHT22;30529;53.570;9.964;2022-10-17T05:25:54;13.20;99.90
44817;DHT22;30529;53.570;9.964;2022-10-17T05:28:40;13.20;99.90
44817;DHT22;30529;53.570;9.964;2022-10-17T05:31:08;13.20;99.90
44817;DHT22;30529;53.570;9.964;2022-10-17T05:33:36;13.10;99.90
44817;DHT22;30529;53.570;9.964;2022-10-17T05:36:03;13.10;99.90
44817;DHT22;30529;53.570;9.964;2022-10-17T05:38:29;13.10;99.90
44817;DHT22;30529;53.570;9.964;2022-10-17T05:41:02;13.10;99.90
44817;DHT22;30529;53.570;9.964;2022-10-17T05:43:29;13.10;99.90
44817;DHT22;30529;53.570;9.964;2022-10-17T05:45:56;13.10;99.90
44817;DHT22;30529;53.570;9.964;2022-10-17T05:48:23;13.10;99.90
44817;DHT22;30529;53.570;9.964;2022-10-17T05:50:49;13.10;99.90
44817;DHT22;30529;53.570;9.964;2022-10-17T05:53:21;13.10;99.90
44817;DHT22;30529;53.570;9.964;2022-10-17T05:56:08;13.00;99.90
44817;DHT22;30529;53.570;9.964;2022-10-17T05:58:35;13.00;99.90
44817;DHT22;30529;53.570;9.964;2022-10-17T06:01:05;13.00;99.90
44817;DHT22;30529;53.570;9.964;2022-10-17T06:03:32;13.00;99.90
44817;DHT22;30529;53.570;9.964;2022-10-17T06:06:04;13.00;99.90
44817;DHT22;30529;53.570;9.964;2022-10-17T06:08:30;13.00;99.90
44817;DHT22;30529;53.570;9.964;2022-10-17T06:10:56;13.10;99.90
44817;DHT22;30529;53.570;9.964;2022-10-17T06:13:23;13.10;99.90
44817;DHT22;30529;53.570;9.964;2022-10-17T06:15:49;13.10;99.90
44817;DHT22;30529;53.570;9.964;2022-10-17T06:18:15;13.10;99.90
44817;DHT22;30529;53.570;9.964;2022-10-17T06:20:42;13.10;99.90
44817;DHT22;30529;53.570;9.964;2022-10-17T06:23:08;13.20;99.90
44817;DHT22;30529;53.570;9.964;2022-10-17T06:25:34;13.20;99.90
44817;DHT22;30529;53.570;9.964;2022-10-17T06:28:00;13.20;99.90
44817;DHT22;30529;53.570;9.964;2022-10-17T06:30:27;13.20;99.90
44817;DHT22;30529;53.570;9.964;2022-10-17T06:32:53;13.30;99.90
44817;DHT22;30529;53.570;9.964;2022-10-17T06:35:19;13.30;99.90
44817;DHT22;30529;53.570;9.964;2022-10-17T06:37:46;13.40;99.90
44817;DHT22;30529;53.570;9.964;2022-10-17T06:40:12;13.40;99.90
44817;DHT22;30529;53.570;9.964;2022-10-17T06:42:40;13.40;99.90
44817;DHT22;30529;53.570;9.964;2022-10-17T06:45:07;13.40;99.90
44817;DHT22;30529;53.570;9.964;2022-10-17T06:47:34;13.50;99.90
44817;DHT22;30529;53.570;9.964;2022-10-17T06:50:01;13.50;99.90
44817;DHT22;30529;53.570;9.964;2022-10-17T06:52:27;13.50;99.90
44817;DHT22;30529;53.570;9.964;2022-10-17T06:54:53;13.60;99.90
44817;DHT22;30529;53.570;9.964;2022-10-17T06:57:19;13.60;99.90
44817;DHT22;30529;53.570;9.964;2022-10-17T06:59:45;13.70;99.90
44817;DHT22;30529;53.570;9.964;2022-10-17T07:02:12;13.70;99.90
44817;DHT22;30529;53.570;9.964;2022-10-17T07:04:41;13.80;99.90
44817;DHT22;30529;53.570;9.964;2022-10-17T07:07:09;13.80;99.90
44817;DHT22;30529;53.570;9.964;2022-10-17T07:09:36;13.90;99.90
44817;DHT22;30529;53.570;9.964;2022-10-17T07:12:02;13.90;99.90
44817;DHT22;30529;53.570;9.964;2022-10-17T07:14:31;13.90;99.90
44817;DHT22;30529;53.570;9.964;2022-10-17T07:16:58;14.00;99.90
44817;DHT22;30529;53.570;9.964;2022-10-17T07:19:25;14.00;99.90
44817;DHT22;30529;53.570;9.964;2022-10-17T07:21:54;14.10;99.90
44817;DHT22;30529;53.570;9.964;2022-10-17T07:24:20;14.20;99.90
44817;DHT22;30529;53.570;9.964;2022-10-17T07:26:46;14.20;99.90
44817;DHT22;30529;53.570;9.964;2022-10-17T07:29:13;14.40;99.90
44817;DHT22;30529;53.570;9.964;2022-10-17T07:31:39;14.50;99.90
44817;DHT22;30529;53.570;9.964;2022-10-17T07:34:05;14.60;99.90
44817;DHT22;30529;53.570;9.964;2022-10-17T07:36:31;14.70;99.90
44817;DHT22;30529;53.570;9.964;2022-10-17T07:38:58;14.90;99.90
44817;DHT22;30529;53.570;9.964;2022-10-17T07:41:24;14.90;99.90
44817;DHT22;30529;53.570;9.964;2022-10-17T07:43:50;14.90;99.90
44817;DHT22;30529;53.570;9.964;2022-10-17T07:46:17;14.90;99.90
44817;DHT22;30529;53.570;9.964;2022-10-17T07:48:43;14.90;99.90
44817;DHT22;30529;53.570;9.964;2022-10-17T07:51:09;14.80;99.90
44817;DHT22;30529;53.570;9.964;2022-10-17T07:53:38;14.80;99.90
44817;DHT22;30529;53.570;9.964;2022-10-17T07:56:09;14.80;99.90
44817;DHT22;30529;53.570;9.964;2022-10-17T07:58:36;14.90;99.90
44817;DHT22;30529;53.570;9.964;2022-10-17T08:01:09;15.00;99.90
44817;DHT22;30529;53.570;9.964;2022-10-17T08:03:42;15.20;99.90
44817;DHT22;30529;53.570;9.964;2022-10-17T08:06:09;15.40;99.90
44817;DHT22;30529;53.570;9.964;2022-10-17T08:08:35;15.60;99.90
44817;DHT22;30529;53.570;9.964;2022-10-17T08:11:04;15.80;99.90
44817;DHT22;30529;53.570;9.964;2022-10-17T08:13:31;15.90;99.90
44817;DHT22;30529;53.570;9.964;2022-10-17T08:16:03;16.00;99.90
44817;DHT22;30529;53.570;9.964;2022-10-17T08:18:29;16.00;99.90
44817;DHT22;30529;53.570;9.964;2022-10-17T08:20:59;16.10;99.90
44817;DHT22;30529;53.570;9.964;2022-10-17T08:23:25;16.10;99.90
44817;DHT22;30529;53.570;9.964;2022-10-17T08:25:52;16.10;99.90
44817;DHT22;30529;53.570;9.964;2022-10-17T08:28:18;16.10;99.90
44817;DHT22;30529;53.570;9.964;2022-10-17T08:30:45;16.00;99.90
44817;DHT22;30529;53.570;9.964;2022-10-17T08:33:11;16.00;99.90
44817;DHT22;30529;53.570;9.964;2022-10-17T08:35:40;16.00;99.90
44817;DHT22;30529;53.570;9.964;2022-10-17T08:38:20;16.10;99.90
44817;DHT22;30529;53.570;9.964;2022-10-17T08:40:48;16.20;99.90
44817;DHT22;30529;53.570;9.964;2022-10-17T08:46:05;16.20;99.90
44817;DHT22;30529;53.570;9.964;2022-10-17T08:52:34;16.30;99.90
44817;DHT22;30529;53.570;9.964;2022-10-17T08:55:04;16.30;99.90
44817;DHT22;30529;53.570;9.964;2022-10-17T08:57:36;16.40;99.90
44817;DHT22;30529;53.570;9.964;2022-10-17T09:00:06;16.50;99.90
44817;DHT22;30529;53.570;9.964;2022-10-17T09:12:19;16.90;99.90
44817;DHT22;30529;53.570;9.964;2022-10-17T09:17:58;17.20;99.90
44817;DHT22;30529;53.570;9.964;2022-10-17T09:20:36;17.30;99.90
44817;DHT22;30529;53.570;9.964;2022-10-17T09:23:15;17.30;99.90
44817;DHT22;30529;53.570;9.964;2022-10-17T09:25:45;17.50;99.90
44817;DHT22;30529;53.570;9.964;2022-10-17T09:31:04;17.50;99.90
44817;DHT22;30529;53.570;9.964;2022-10-17T09:33:42;17.40;99.90
44817;DHT22;30529;53.570;9.964;2022-10-17T09:36:16;17.30;99.90
44817;DHT22;30529;53.570;9.964;2022-10-17T09:38:52;17.30;99.90
44817;DHT22;30529;53.570;9.964;2022-10-17T09:41:21;17.30;99.90
44817;DHT22;30529;53.570;9.964;2022-10-17T09:43:52;17.30;99.90
44817;DHT22;30529;53.570;9.964;2022-10-17T09:46:29;17.30;99.90
44817;DHT22;30529;53.570;9.964;2022-10-17T09:49:08;17.20;99.90
44817;DHT22;30529;53.570;9.964;2022-10-17T09:51:36;17.30;99.90
44817;DHT22;30529;53.570;9.964;2022-10-17T09:54:20;17.60;99.90
44817;DHT22;30529;53.570;9.964;2022-10-17T09:57:03;17.80;99.90
44817;DHT22;30529;53.570;9.964;2022-10-17T09:59:36;17.90;99.90
44817;DHT22;30529;53.570;9.964;2022-10-17T10:04:54;18.10;99.90
44817;DHT22;30529;53.570;9.964;2022-10-17T10:07:21;18.20;99.90
44817;DHT22;30529;53.570;9.964;2022-10-17T10:09:48;18.30;99.90
44817;DHT22;30529;53.570;9.964;2022-10-17T10:12:25;18.30;99.90
44817;DHT22;30529;53.570;9.964;2022-10-17T10:14:52;18.50;99.90
44817;DHT22;30529;53.570;9.964;2022-10-17T10:19:55;18.70;99.90
44817;DHT22;30529;53.570;9.964;2022-10-17T10:22:22;18.70;99.90
44817;DHT22;30529;53.570;9.964;2022-10-17T10:25:21;18.70;99.90
44817;DHT22;30529;53.570;9.964;2022-10-17T10:27:47;18.60;99.90
44817;DHT22;30529;53.570;9.964;2022-10-17T10:30:18;18.60;99.90
44817;DHT22;30529;53.570;9.964;2022-10-17T10:32:48;18.70;99.90
44817;DHT22;30529;53.570;9.964;2022-10-17T10:35:22;18.80;99.90
44817;DHT22;30529;53.570;9.964;2022-10-17T10:37:54;18.90;99.90
44817;DHT22;30529;53.570;9.964;2022-10-17T10:40:46;19.00;99.90
44817;DHT22;30529;53.570;9.964;2022-10-17T10:43:40;19.10;99.90
44817;DHT22;30529;53.570;9.964;2022-10-17T10:46:27;19.20;99.90
44817;DHT22;30529;53.570;9.964;2022-10-17T10:49:00;19.40;99.90
44817;DHT22;30529;53.570;9.964;2022-10-17T10:51:38;19.60;99.90
44817;DHT22;30529;53.570;9.964;2022-10-17T10:56:45;19.70;99.90
44817;DHT22;30529;53.570;9.964;2022-10-17T11:05:29;19.70;99.90
44817;DHT22;30529;53.570;9.964;2022-10-17T11:08:09;19.60;99.90
44817;DHT22;30529;53.570;9.964;2022-10-17T11:27:10;19.50;99.90
44817;DHT22;30529;53.570;9.964;2022-10-17T11:29:40;19.60;99.90
44817;DHT22;30529;53.570;9.964;2022-10-17T11:32:09;19.80;99.90
44817;DHT22;30529;53.570;9.964;2022-10-17T11:42:05;19.90;99.90
44817;DHT22;30529;53.570;9.964;2022-10-17T11:44:41;20.00;99.90
44817;DHT22;30529;53.570;9.964;2022-10-17T11:47:36;20.10;99.90
44817;DHT22;30529;53.570;9.964;2022-10-17T11:50:18;20.00;99.90
44817;DHT22;30529;53.570;9.964;2022-10-17T11:53:30;20.10;99.90
44817;DHT22;30529;53.570;9.964;2022-10-17T11:55:57;19.90;99.90
44817;DHT22;30529;53.570;9.964;2022-10-17T12:00:52;19.70;99.90
44817;DHT22;30529;53.570;9.964;2022-10-17T12:04:01;19.60;99.90
44817;DHT22;30529;53.570;9.964;2022-10-17T12:10:52;19.10;99.90
44817;DHT22;30529;53.570;9.964;2022-10-17T12:12:52;18.80;99.90
44817;DHT22;30529;53.570;9.964;2022-10-17T12:17:52;18.30;99.90
44817;DHT22;30529;53.570;9.964;2022-10-17T12:25:54;18.20;99.90
44817;DHT22;30529;53.570;9.964;2022-10-17T12:33:56;18.10;99.90
44817;DHT22;30529;53.570;9.964;2022-10-17T12:46:50;18.60;99.90
44817;DHT22;30529;53.570;9.964;2022-10-17T12:49:20;18.60;99.90
44817;DHT22;30529;53.570;9.964;2022-10-17T12:54:41;18.70;99.90
44817;DHT22;30529;53.570;9.964;2022-10-17T13:00:19;18.50;99.90
44817;DHT22;30529;53.570;9.964;2022-10-17T13:02:47;18.40;99.90
44817;DHT22;30529;53.570;9.964;2022-10-17T13:05:35;18.30;99.90
44817;DHT22;30529;53.570;9.964;2022-10-17T13:08:05;18.20;99.90
44817;DHT22;30529;53.570;9.964;2022-10-17T13:10:38;18.10;99.90
44817;DHT22;30529;53.570;9.964;2022-10-17T13:13:29;18.00;99.90
44817;DHT22;30529;53.570;9.964;2022-10-17T13:15:59;17.80;99.90
44817;DHT22;30529;53.570;9.964;2022-10-17T13:18:27;17.80;99.90
44817;DHT22;30529;53.570;9.964;2022-10-17T13:21:04;17.80;99.90
44817;DHT22;30529;53.570;9.964;2022-10-17T13:23:36;17.60;99.90
44817;DHT22;30529;53.570;9.964;2022-10-17T13:28:35;17.40;99.90
44817;DHT22;30529;53.570;9.964;2022-10-17T13:31:01;17.50;99.90
44817;DHT22;30529;53.570;9.964;2022-10-17T13:33:35;17.50;99.90
44817;DHT22;30529;53.570;9.964;2022-10-17T14:01:26;17.40;99.90
44817;DHT22;30529;53.570;9.964;2022-10-17T14:03:58;17.40;99.90
44817;DHT22;30529;53.570;9.964;2022-10-17T14:06:29;17.30;99.90
44817;DHT22;30529;53.570;9.964;2022-10-17T14:14:57;17.50;99.90
44817;DHT22;30529;53.570;9.964;2022-10-17T14:17:28;17.50;99.90
44817;DHT22;30529;53.570;9.964;2022-10-17T14:20:03;17.60;99.90
44817;DHT22;30529;53.570;9.964;2022-10-17T14:22:47;17.60;99.90
44817;DHT22;30529;53.570;9.964;2022-10-17T14:29:31;17.70;99.90
44817;DHT22;30529;53.570;9.964;2022-10-17T14:33:07;17.70;99.90
44817;DHT22;30529;53.570;9.964;2022-10-17T14:39:52;17.60;99.90
44817;DHT22;30529;53.570;9.964;2022-10-17T14:43:06;17.60;99.90
44817;DHT22;30529;53.570;9.964;2022-10-17T14:45:50;17.50;99.90
44817;DHT22;30529;53.570;9.964;2022-10-17T14:59:21;17.50;99.90
44817;DHT22;30529;53.570;9.964;2022-10-17T15:02:24;17.40;99.90
44817;DHT22;30529;53.570;9.964;2022-10-17T15:05:16;17.50;99.90
44817;DHT22;30529;53.570;9.964;2022-10-17T15:08:15;17.40;99.90
44817;DHT22;30529;53.570;9.964;2022-10-17T15:10:42;17.40;99.90
44817;DHT22;30529;53.570;9.964;2022-10-17T15:13:15;17.40;99.90
44817;DHT22;30529;53.570;9.964;2022-10-17T15:15:56;17.40;99.90
44817;DHT22;30529;53.570;9.964;2022-10-17T15:18:29;17.40;99.90
44817;DHT22;30529;53.570;9.964;2022-10-17T15:20:57;17.30;99.90
44817;DHT22;30529;53.570;9.964;2022-10-17T15:23:28;17.30;99.90
44817;DHT22;30529;53.570;9.964;2022-10-17T15:26:00;17.30;99.90
44817;DHT22;30529;53.570;9.964;2022-10-17T15:28:26;17.30;99.90
44817;DHT22;30529;53.570;9.964;2022-10-17T15:30:52;17.30;99.90
44817;DHT22;30529;53.570;9.964;2022-10-17T15:33:18;17.20;99.90
44817;DHT22;30529;53.570;9.964;2022-10-17T15:35:51;17.20;99.90
44817;DHT22;30529;53.570;9.964;2022-10-17T15:38:17;17.20;99.90
44817;DHT22;30529;53.570;9.964;2022-10-17T15:40:43;17.20;99.90
44817;DHT22;30529;53.570;9.964;2022-10-17T15:43:13;17.20;99.90
44817;DHT22;30529;53.570;9.964;2022-10-17T15:45:39;17.20;99.90
44817;DHT22;30529;53.570;9.964;2022-10-17T15:48:06;17.20;99.90
44817;DHT22;30529;53.570;9.964;2022-10-17T15:50:39;17.10;99.90
44817;DHT22;30529;53.570;9.964;2022-10-17T15:53:11;17.10;99.90
44817;DHT22;30529;53.570;9.964;2022-10-17T15:55:38;17.10;99.90
44817;DHT22;30529;53.570;9.964;2022-10-17T15:58:12;17.10;99.90
44817;DHT22;30529;53.570;9.964;2022-10-17T16:00:42;17.10;99.90
44817;DHT22;30529;53.570;9.964;2022-10-17T16:03:08;17.10;99.90
44817;DHT22;30529;53.570;9.964;2022-10-17T16:05:35;17.10;99.90
44817;DHT22;30529;53.570;9.964;2022-10-17T16:08:01;17.00;99.90
44817;DHT22;30529;53.570;9.964;2022-10-17T16:10:27;17.00;99.90
44817;DHT22;30529;53.570;9.964;2022-10-17T16:12:53;17.00;99.90
44817;DHT22;30529;53.570;9.964;2022-10-17T16:15:24;17.00;99.90
44817;DHT22;30529;53.570;9.964;2022-10-17T16:17:53;17.00;99.90
44817;DHT22;30529;53.570;9.964;2022-10-17T16:20:23;17.00;99.90
44817;DHT22;30529;53.570;9.964;2022-10-17T16:22:50;17.00;99.90
44817;DHT22;30529;53.570;9.964;2022-10-17T16:25:25;17.00;99.90
44817;DHT22;30529;53.570;9.964;2022-10-17T16:27:53;17.00;99.90
44817;DHT22;30529;53.570;9.964;2022-10-17T16:30:21;17.00;99.90
44817;DHT22;30529;53.570;9.964;2022-10-17T16:32:48;17.00;99.90
44817;DHT22;30529;53.570;9.964;2022-10-17T16:35:21;17.00;99.90
44817;DHT22;30529;53.570;9.964;2022-10-17T16:37:48;17.00;99.90
44817;DHT22;30529;53.570;9.964;2022-10-17T16:40:15;17.00;99.90
44817;DHT22;30529;53.570;9.964;2022-10-17T16:42:41;17.00;99.90
44817;DHT22;30529;53.570;9.964;2022-10-17T16:45:16;17.00;99.90
44817;DHT22;30529;53.570;9.964;2022-10-17T16:47:43;17.00;99.90
44817;DHT22;30529;53.570;9.964;2022-10-17T16:50:09;17.00;99.90
44817;DHT22;30529;53.570;9.964;2022-10-17T16:52:35;17.00;99.90
44817;DHT22;30529;53.570;9.964;2022-10-17T16:55:02;16.90;99.90
44817;DHT22;30529;53.570;9.964;2022-10-17T16:57:28;16.90;99.90
44817;DHT22;30529;53.570;9.964;2022-10-17T16:59:54;16.90;99.90
44817;DHT22;30529;53.570;9.964;2022-10-17T17:02:20;16.90;99.90
44817;DHT22;30529;53.570;9.964;2022-10-17T17:04:46;16.90;99.90
44817;DHT22;30529;53.570;9.964;2022-10-17T17:07:12;16.90;99.90
44817;DHT22;30529;53.570;9.964;2022-10-17T17:09:39;16.90;99.90
44817;DHT22;30529;53.570;9.964;2022-10-17T17:12:05;16.90;99.90
44817;DHT22;30529;53.570;9.964;2022-10-17T17:14:31;16.90;99.90
44817;DHT22;30529;53.570;9.964;2022-10-17T17:16:57;16.90;99.90
44817;DHT22;30529;53.570;9.964;2022-10-17T17:19:24;16.90;99.90
44817;DHT22;30529;53.570;9.964;2022-10-17T17:21:50;16.90;99.90
44817;DHT22;30529;53.570;9.964;2022-10-17T17:24:17;16.90;99.90
44817;DHT22;30529;53.570;9.964;2022-10-17T17:26:52;16.90;99.90
44817;DHT22;30529;53.570;9.964;2022-10-17T17:29:21;16.90;99.90
44817;DHT22;30529;53.570;9.964;2022-10-17T17:31:47;16.90;99.90
44817;DHT22;30529;53.570;9.964;2022-10-17T17:34:16;16.90;99.90
44817;DHT22;30529;53.570;9.964;2022-10-17T17:36:42;16.90;99.90
44817;DHT22;30529;53.570;9.964;2022-10-17T17:39:11;16.90;99.90
44817;DHT22;30529;53.570;9.964;2022-10-17T17:41:44;16.90;99.90
44817;DHT22;30529;53.570;9.964;2022-10-17T17:44:19;16.90;99.90
44817;DHT22;30529;53.570;9.964;2022-10-17T17:46:49;16.90;99.90
44817;DHT22;30529;53.570;9.964;2022-10-17T17:52:33;16.90;99.90
44817;DHT22;30529;53.570;9.964;2022-10-17T17:54:59;16.90;99.90
44817;DHT22;30529;53.570;9.964;2022-10-17T17:57:27;16.90;99.90
44817;DHT22;30529;53.570;9.964;2022-10-17T17:59:53;16.90;99.90
44817;DHT22;30529;53.570;9.964;2022-10-17T18:02:20;16.90;99.90
44817;DHT22;30529;53.570;9.964;2022-10-17T18:04:46;16.90;99.90
44817;DHT22;30529;53.570;9.964;2022-10-17T18:07:13;16.90;99.90
44817;DHT22;30529;53.570;9.964;2022-10-17T18:09:39;16.90;99.90
44817;DHT22;30529;53.570;9.964;2022-10-17T18:12:05;16.90;99.90
44817;DHT22;30529;53.570;9.964;2022-10-17T18:14:32;16.90;99.90
44817;DHT22;30529;53.570;9.964;2022-10-17T18:16:58;16.90;99.90
44817;DHT22;30529;53.570;9.964;2022-10-17T18:19:24;16.90;99.90
44817;DHT22;30529;53.570;9.964;2022-10-17T18:21:53;16.90;99.90
44817;DHT22;30529;53.570;9.964;2022-10-17T18:24:19;16.90;99.90
44817;DHT22;30529;53.570;9.964;2022-10-17T18:26:45;16.90;99.90
44817;DHT22;30529;53.570;9.964;2022-10-17T18:29:11;16.90;99.90
44817;DHT22;30529;53.570;9.964;2022-10-17T18:31:37;16.90;99.90
44817;DHT22;30529;53.570;9.964;2022-10-17T18:34:04;16.90;99.90
44817;DHT22;30529;53.570;9.964;2022-10-17T18:36:32;16.90;99.90
44817;DHT22;30529;53.570;9.964;2022-10-17T18:38:59;16.90;99.90
44817;DHT22;30529;53.570;9.964;2022-10-17T18:41:26;16.90;99.90
44817;DHT22;30529;53.570;9.964;2022-10-17T18:43:54;16.90;99.90
44817;DHT22;30529;53.570;9.964;2022-10-17T18:46:23;16.90;99.90
44817;DHT22;30529;53.570;9.964;2022-10-17T18:48:50;16.90;99.90
44817;DHT22;30529;53.570;9.964;2022-10-17T18:51:18;16.90;99.90
44817;DHT22;30529;53.570;9.964;2022-10-17T18:53:47;16.80;99.90
44817;DHT22;30529;53.570;9.964;2022-10-17T18:56:14;16.80;99.90
44817;DHT22;30529;53.570;9.964;2022-10-17T18:58:41;16.80;99.90
44817;DHT22;30529;53.570;9.964;2022-10-17T19:01:13;16.70;99.90
44817;DHT22;30529;53.570;9.964;2022-10-17T19:03:46;16.70;99.90